sensor_id;sensor_type;location;lat;lon;timestamp;pressure;altitude;pressure_sealevel;temperature;humidity
71966;BME280;59836;52.132;5.442;2023-03-13T19:38:51;99065.59;;;10.56;80.17
71966;BME280;59836;52.132;5.442;2023-03-13T19:41:18;99062.41;;;10.54;79.89
71966;BME280;59836;52.132;5.442;2023-03-13T19:43:44;99056.34;;;10.57;79.90
71966;BME280;59836;52.132;5.442;2023-03-13T19:46:25;99057.16;;;10.58;80.00
71966;BME280;59836;52.132;5.442;2023-03-13T19:48:53;99057.97;;;10.58;80.59
71966;BME280;59836;52.132;5.442;2023-03-13T19:51:20;99064.81;;;10.56;80.89
71966;BME280;59836;52.132;5.442;2023-03-13T19:53:47;99059.84;;;10.49;80.17
71966;BME280;59836;52.132;5.442;2023-03-13T19:56:18;99056.34;;;10.48;80.37
71966;BME280;59836;52.132;5.442;2023-03-13T19:58:51;99065.25;;;10.49;80.92
71966;BME280;59836;52.132;5.442;2023-03-13T20:01:18;99064.28;;;10.45;81.15
71966;BME280;59836;52.132;5.442;2023-03-13T20:03:45;99051.34;;;10.42;81.20
71966;BME280;59836;52.132;5.442;2023-03-13T20:08:43;99044.44;;;10.36;81.84
71966;BME280;59836;52.132;5.442;2023-03-13T20:11:10;99050.19;;;10.34;81.74
71966;BME280;59836;52.132;5.442;2023-03-13T20:13:38;99045.69;;;10.29;81.97
71966;BME280;59836;52.132;5.442;2023-03-13T20:16:04;99046.31;;;10.26;81.43
71966;BME280;59836;52.132;5.442;2023-03-13T20:18:31;99037.69;;;10.24;81.71
71966;BME280;59836;52.132;5.442;2023-03-13T20:20:57;99041.34;;;10.19;81.50
71966;BME280;59836;52.132;5.442;2023-03-13T20:23:24;99041.16;;;10.16;81.99
71966;BME280;59836;52.132;5.442;2023-03-13T20:25:50;99041.78;;;10.13;82.54
71966;BME280;59836;52.132;5.442;2023-03-13T20:28:17;99037.81;;;10.10;82.39
71966;BME280;59836;52.132;5.442;2023-03-13T20:30:43;99041.63;;;10.09;82.33
71966;BME280;59836;52.132;5.442;2023-03-13T20:33:10;99035.38;;;10.09;82.84
71966;BME280;59836;52.132;5.442;2023-03-13T20:35:37;99032.22;;;10.07;82.81
71966;BME280;59836;52.132;5.442;2023-03-13T20:38:04;99025.84;;;10.02;83.07
71966;BME280;59836;52.132;5.442;2023-03-13T20:40:34;99021.53;;;10.01;82.85
71966;BME280;59836;52.132;5.442;2023-03-13T20:43:01;99013.19;;;9.98;83.08
71966;BME280;59836;52.132;5.442;2023-03-13T20:45:28;99011.44;;;9.93;82.45
71966;BME280;59836;52.132;5.442;2023-03-13T20:47:55;99016.50;;;9.86;83.37
71966;BME280;59836;52.132;5.442;2023-03-13T20:50:25;99019.00;;;9.82;83.11
71966;BME280;59836;52.132;5.442;2023-03-13T20:52:53;99018.53;;;9.80;82.98
71966;BME280;59836;52.132;5.442;2023-03-13T20:55:21;99017.25;;;9.78;84.03
71966;BME280;59836;52.132;5.442;2023-03-13T20:57:50;99030.59;;;9.74;84.05
71966;BME280;59836;52.132;5.442;2023-03-13T21:00:23;99025.66;;;9.76;84.31
71966;BME280;59836;52.132;5.442;2023-03-13T21:02:50;99032.06;;;9.80;84.10
71966;BME280;59836;52.132;5.442;2023-03-13T21:05:18;99031.75;;;9.82;84.30
71966;BME280;59836;52.132;5.442;2023-03-13T21:07:45;99025.13;;;9.88;84.21
71966;BME280;59836;52.132;5.442;2023-03-13T21:10:13;99013.66;;;9.91;84.67
71966;BME280;59836;52.132;5.442;2023-03-13T21:12:39;99016.84;;;9.93;84.24
71966;BME280;59836;52.132;5.442;2023-03-13T21:15:07;99021.16;;;9.94;83.96
71966;BME280;59836;52.132;5.442;2023-03-13T21:17:34;99016.03;;;9.93;84.00
71966;BME280;59836;52.132;5.442;2023-03-13T21:20:01;99010.63;;;9.93;83.92
71966;BME280;59836;52.132;5.442;2023-03-13T21:22:33;99015.25;;;9.92;83.86
71966;BME280;59836;52.132;5.442;2023-03-13T21:24:59;99015.25;;;9.92;83.46
71966;BME280;59836;52.132;5.442;2023-03-13T21:27:27;99010.94;;;9.91;83.60
71966;BME280;59836;52.132;5.442;2023-03-13T21:29:53;99012.56;;;9.92;84.19
71966;BME280;59836;52.132;5.442;2023-03-13T21:32:20;99018.47;;;9.94;83.74
71966;BME280;59836;52.132;5.442;2023-03-13T21:34:46;99010.63;;;9.93;83.78
71966;BME280;59836;52.132;5.442;2023-03-13T21:37:13;99012.09;;;9.99;83.52
71966;BME280;59836;52.132;5.442;2023-03-13T21:39:40;99008.28;;;10.00;82.80
71966;BME280;59836;52.132;5.442;2023-03-13T21:42:07;98999.03;;;10.01;83.27
71966;BME280;59836;52.132;5.442;2023-03-13T21:44:34;98994.94;;;10.03;83.42
71966;BME280;59836;52.132;5.442;2023-03-13T21:47:01;98983.47;;;10.07;82.90
71966;BME280;59836;52.132;5.442;2023-03-13T21:49:27;98982.81;;;10.10;82.88
71966;BME280;59836;52.132;5.442;2023-03-13T21:51:53;98979.47;;;10.13;83.34
71966;BME280;59836;52.132;5.442;2023-03-13T21:54:22;98972.34;;;10.17;82.62
71966;BME280;59836;52.132;5.442;2023-03-13T21:56:49;98961.97;;;10.19;82.99
71966;BME280;59836;52.132;5.442;2023-03-13T21:59:17;98959.75;;;10.21;83.51
71966;BME280;59836;52.132;5.442;2023-03-13T22:01:43;98954.34;;;10.21;82.92
71966;BME280;59836;52.132;5.442;2023-03-13T22:04:10;98944.16;;;10.27;82.75
71966;BME280;59836;52.132;5.442;2023-03-13T22:06:36;98952.47;;;10.30;82.34
71966;BME280;59836;52.132;5.442;2023-03-13T22:09:04;98935.91;;;10.32;82.38
71966;BME280;59836;52.132;5.442;2023-03-13T22:11:31;98943.88;;;10.37;81.89
71966;BME280;59836;52.132;5.442;2023-03-13T22:13:57;98939.47;;;10.41;82.04
71966;BME280;59836;52.132;5.442;2023-03-13T22:16:24;98929.59;;;10.45;81.66
71966;BME280;59836;52.132;5.442;2023-03-13T22:18:51;98929.75;;;10.49;81.68
71966;BME280;59836;52.132;5.442;2023-03-13T22:21:18;98916.66;;;10.51;80.60
71966;BME280;59836;52.132;5.442;2023-03-13T22:23:45;98922.09;;;10.51;80.59
71966;BME280;59836;52.132;5.442;2023-03-13T22:26:12;98913.47;;;10.49;80.60
71966;BME280;59836;52.132;5.442;2023-03-13T22:28:39;98910.75;;;10.49;80.25
71966;BME280;59836;52.132;5.442;2023-03-13T22:31:07;98908.06;;;10.49;81.01
71966;BME280;59836;52.132;5.442;2023-03-13T22:33:34;98916.50;;;10.47;80.32
71966;BME280;59836;52.132;5.442;2023-03-13T22:36:01;98921.94;;;10.47;80.64
71966;BME280;59836;52.132;5.442;2023-03-13T22:38:28;98921.13;;;10.47;81.15
71966;BME280;59836;52.132;5.442;2023-03-13T22:40:59;98921.44;;;10.45;80.75
71966;BME280;59836;52.132;5.442;2023-03-13T22:43:26;98911.09;;;10.47;80.63
71966;BME280;59836;52.132;5.442;2023-03-13T22:45:54;98914.28;;;10.50;80.30
71966;BME280;59836;52.132;5.442;2023-03-13T22:48:21;98905.03;;;10.51;80.27
71966;BME280;59836;52.132;5.442;2023-03-13T22:50:58;98903.59;;;10.53;81.31
71966;BME280;59836;52.132;5.442;2023-03-13T22:53:24;98898.19;;;10.53;80.96
71966;BME280;59836;52.132;5.442;2023-03-13T22:55:51;98906.78;;;10.55;80.88
71966;BME280;59836;52.132;5.442;2023-03-13T22:58:17;98905.19;;;10.54;81.84
71966;BME280;59836;52.132;5.442;2023-03-13T23:00:44;98902.00;;;10.52;81.61
71966;BME280;59836;52.132;5.442;2023-03-13T23:03:10;98887.97;;;10.50;82.22
71966;BME280;59836;52.132;5.442;2023-03-13T23:05:38;98903.94;;;10.52;81.46
71966;BME280;59836;52.132;5.442;2023-03-13T23:08:06;98902.81;;;10.53;81.70
71966;BME280;59836;52.132;5.442;2023-03-13T23:10:33;98900.41;;;10.51;82.43
71966;BME280;59836;52.132;5.442;2023-03-13T23:12:59;98896.09;;;10.50;82.29
71966;BME280;59836;52.132;5.442;2023-03-13T23:15:26;98885.59;;;10.48;83.11
71966;BME280;59836;52.132;5.442;2023-03-13T23:17:58;98892.44;;;10.46;84.68
71966;BME280;59836;52.132;5.442;2023-03-13T23:20:25;98888.28;;;10.40;86.04
71966;BME280;59836;52.132;5.442;2023-03-13T23:22:51;98896.53;;;10.34;86.92
71966;BME280;59836;52.132;5.442;2023-03-13T23:25:18;98887.75;;;10.29;87.16
71966;BME280;59836;52.132;5.442;2023-03-13T23:27:45;98888.69;;;10.24;88.28
71966;BME280;59836;52.132;5.442;2023-03-13T23:30:13;98873.06;;;10.21;88.20
71966;BME280;59836;52.132;5.442;2023-03-13T23:32:42;98893.63;;;10.22;88.79
71966;BME280;59836;52.132;5.442;2023-03-13T23:35:10;98905.75;;;10.25;89.36
71966;BME280;59836;52.132;5.442;2023-03-13T23:37:37;98893.00;;;10.25;89.83
71966;BME280;59836;52.132;5.442;2023-03-13T23:40:06;98886.31;;;10.23;90.03
71966;BME280;59836;52.132;5.442;2023-03-13T23:42:37;98884.53;;;10.18;90.77
71966;BME280;59836;52.132;5.442;2023-03-13T23:45:03;98890.91;;;10.13;91.01
71966;BME280;59836;52.132;5.442;2023-03-13T23:47:32;98887.53;;;10.08;90.44
71966;BME280;59836;52.132;5.442;2023-03-13T23:49:58;98884.81;;;9.99;91.09
71966;BME280;59836;52.132;5.442;2023-03-13T23:52:25;98885.75;;;9.94;91.75
71966;BME280;59836;52.132;5.442;2023-03-13T23:54:51;98889.72;;;9.88;91.63
71966;BME280;59836;52.132;5.442;2023-03-13T23:57:18;98883.81;;;9.86;91.73
71966;BME280;59836;52.132;5.442;2023-03-13T23:59:45;98873.28;;;9.84;92.01
